sensor_id;sensor_type;location;lat;lon;timestamp;P1;durP1;ratioP1;P2;durP2;ratioP2
15153;SDS011;7677;41.896;25.004;2023-05-14T00:00:04;5.50;;;2.53;;
15153;SDS011;7677;41.896;25.004;2023-05-14T00:02:32;2.23;;;2.03;;
15153;SDS011;7677;41.896;25.004;2023-05-14T00:05:00;4.53;;;2.70;;
15153;SDS011;7677;41.896;25.004;2023-05-14T00:07:27;2.43;;;2.23;;
15153;SDS011;7677;41.896;25.004;2023-05-14T00:09:55;2.40;;;2.20;;
15153;SDS011;7677;41.896;25.004;2023-05-14T00:12:23;3.27;;;2.53;;
15153;SDS011;7677;41.896;25.004;2023-05-14T00:14:52;2.67;;;2.40;;
15153;SDS011;7677;41.896;25.004;2023-05-14T00:17:19;8.43;;;2.60;;
15153;SDS011;7677;41.896;25.004;2023-05-14T00:19:46;2.97;;;2.30;;
15153;SDS011;7677;41.896;25.004;2023-05-14T00:22:13;2.60;;;2.40;;
15153;SDS011;7677;41.896;25.004;2023-05-14T00:24:41;2.90;;;2.70;;
15153;SDS011;7677;41.896;25.004;2023-05-14T00:27:09;2.60;;;2.40;;
15153;SDS011;7677;41.896;25.004;2023-05-14T00:29:36;3.20;;;2.90;;
15153;SDS011;7677;41.896;25.004;2023-05-14T00:32:15;2.70;;;2.50;;
15153;SDS011;7677;41.896;25.004;2023-05-14T00:34:42;2.70;;;2.40;;
15153;SDS011;7677;41.896;25.004;2023-05-14T00:37:10;3.23;;;2.60;;
15153;SDS011;7677;41.896;25.004;2023-05-14T00:39:37;3.23;;;2.93;;
15153;SDS011;7677;41.896;25.004;2023-05-14T00:42:06;2.67;;;2.33;;
15153;SDS011;7677;41.896;25.004;2023-05-14T00:44:34;2.80;;;2.47;;
15153;SDS011;7677;41.896;25.004;2023-05-14T00:47:01;3.43;;;2.67;;
15153;SDS011;7677;41.896;25.004;2023-05-14T00:49:30;7.07;;;2.60;;
15153;SDS011;7677;41.896;25.004;2023-05-14T00:51:57;3.03;;;2.67;;
15153;SDS011;7677;41.896;25.004;2023-05-14T00:54:25;2.83;;;2.63;;
15153;SDS011;7677;41.896;25.004;2023-05-14T00:56:56;4.13;;;2.80;;
15153;SDS011;7677;41.896;25.004;2023-05-14T00:59:23;2.53;;;2.33;;
15153;SDS011;7677;41.896;25.004;2023-05-14T01:01:51;3.27;;;2.97;;
15153;SDS011;7677;41.896;25.004;2023-05-14T01:04:18;2.77;;;2.53;;
15153;SDS011;7677;41.896;25.004;2023-05-14T01:06:49;3.20;;;2.60;;
15153;SDS011;7677;41.896;25.004;2023-05-14T01:09:24;2.90;;;2.70;;
15153;SDS011;7677;41.896;25.004;2023-05-14T01:11:54;3.53;;;2.70;;
15153;SDS011;7677;41.896;25.004;2023-05-14T01:14:28;4.80;;;2.80;;
15153;SDS011;7677;41.896;25.004;2023-05-14T01:16:59;3.70;;;3.17;;
15153;SDS011;7677;41.896;25.004;2023-05-14T01:19:29;4.47;;;3.10;;
15153;SDS011;7677;41.896;25.004;2023-05-14T01:22:04;4.03;;;3.70;;
15153;SDS011;7677;41.896;25.004;2023-05-14T01:24:31;3.57;;;3.03;;
15153;SDS011;7677;41.896;25.004;2023-05-14T01:27:00;3.57;;;3.10;;
15153;SDS011;7677;41.896;25.004;2023-05-14T01:29:33;3.47;;;3.17;;
15153;SDS011;7677;41.896;25.004;2023-05-14T01:32:04;3.00;;;2.77;;
15153;SDS011;7677;41.896;25.004;2023-05-14T01:34:33;2.90;;;2.63;;
15153;SDS011;7677;41.896;25.004;2023-05-14T01:37:01;3.60;;;3.17;;
15153;SDS011;7677;41.896;25.004;2023-05-14T01:39:30;3.20;;;2.90;;
15153;SDS011;7677;41.896;25.004;2023-05-14T01:41:58;2.70;;;2.50;;
15153;SDS011;7677;41.896;25.004;2023-05-14T01:44:26;2.80;;;2.53;;
15153;SDS011;7677;41.896;25.004;2023-05-14T01:46:53;2.50;;;2.30;;
15153;SDS011;7677;41.896;25.004;2023-05-14T01:49:21;3.13;;;2.57;;
15153;SDS011;7677;41.896;25.004;2023-05-14T01:51:50;2.43;;;2.23;;
15153;SDS011;7677;41.896;25.004;2023-05-14T01:54:17;2.43;;;2.23;;
15153;SDS011;7677;41.896;25.004;2023-05-14T01:56:46;1.97;;;1.87;;
15153;SDS011;7677;41.896;25.004;2023-05-14T01:59:13;2.60;;;2.40;;
15153;SDS011;7677;41.896;25.004;2023-05-14T02:01:40;1.90;;;1.80;;
15153;SDS011;7677;41.896;25.004;2023-05-14T02:04:08;2.60;;;2.30;;
15153;SDS011;7677;41.896;25.004;2023-05-14T02:06:35;2.70;;;2.43;;
15153;SDS011;7677;41.896;25.004;2023-05-14T02:09:03;2.97;;;2.67;;
15153;SDS011;7677;41.896;25.004;2023-05-14T02:11:30;2.97;;;2.30;;
15153;SDS011;7677;41.896;25.004;2023-05-14T02:13:59;2.37;;;2.17;;
15153;SDS011;7677;41.896;25.004;2023-05-14T02:16:26;4.67;;;2.30;;
15153;SDS011;7677;41.896;25.004;2023-05-14T02:18:53;3.43;;;2.70;;
15153;SDS011;7677;41.896;25.004;2023-05-14T02:21:20;2.93;;;2.40;;
15153;SDS011;7677;41.896;25.004;2023-05-14T02:23:48;3.03;;;2.67;;
15153;SDS011;7677;41.896;25.004;2023-05-14T02:26:15;2.63;;;2.43;;
15153;SDS011;7677;41.896;25.004;2023-05-14T02:28:42;5.23;;;3.30;;
15153;SDS011;7677;41.896;25.004;2023-05-14T02:31:11;2.93;;;2.63;;
15153;SDS011;7677;41.896;25.004;2023-05-14T02:33:38;4.13;;;2.47;;
15153;SDS011;7677;41.896;25.004;2023-05-14T02:36:06;3.90;;;3.43;;
15153;SDS011;7677;41.896;25.004;2023-05-14T02:38:33;3.80;;;3.27;;
15153;SDS011;7677;41.896;25.004;2023-05-14T02:41:00;4.00;;;3.57;;
15153;SDS011;7677;41.896;25.004;2023-05-14T02:43:27;4.50;;;3.33;;
15153;SDS011;7677;41.896;25.004;2023-05-14T02:45:55;3.73;;;2.80;;
15153;SDS011;7677;41.896;25.004;2023-05-14T02:48:24;3.43;;;3.13;;
15153;SDS011;7677;41.896;25.004;2023-05-14T02:50:51;3.13;;;2.73;;
15153;SDS011;7677;41.896;25.004;2023-05-14T02:53:18;3.77;;;2.77;;
15153;SDS011;7677;41.896;25.004;2023-05-14T02:55:45;3.47;;;3.17;;
15153;SDS011;7677;41.896;25.004;2023-05-14T02:58:12;3.60;;;2.93;;
15153;SDS011;7677;41.896;25.004;2023-05-14T03:00:40;3.30;;;3.00;;
15153;SDS011;7677;41.896;25.004;2023-05-14T03:03:07;4.33;;;3.70;;
15153;SDS011;7677;41.896;25.004;2023-05-14T03:05:35;4.50;;;2.90;;
15153;SDS011;7677;41.896;25.004;2023-05-14T03:08:02;4.47;;;3.40;;
15153;SDS011;7677;41.896;25.004;2023-05-14T03:10:30;3.67;;;3.37;;
15153;SDS011;7677;41.896;25.004;2023-05-14T03:12:58;4.17;;;3.40;;
15153;SDS011;7677;41.896;25.004;2023-05-14T03:15:25;3.20;;;2.90;;
15153;SDS011;7677;41.896;25.004;2023-05-14T03:17:52;3.53;;;2.97;;
15153;SDS011;7677;41.896;25.004;2023-05-14T03:20:19;2.77;;;2.50;;
15153;SDS011;7677;41.896;25.004;2023-05-14T03:22:49;5.13;;;3.77;;
15153;SDS011;7677;41.896;25.004;2023-05-14T03:25:16;3.13;;;2.83;;
15153;SDS011;7677;41.896;25.004;2023-05-14T03:27:43;3.43;;;2.90;;
15153;SDS011;7677;41.896;25.004;2023-05-14T03:30:10;3.70;;;2.80;;
15153;SDS011;7677;41.896;25.004;2023-05-14T03:32:38;5.50;;;3.67;;
15153;SDS011;7677;41.896;25.004;2023-05-14T03:35:06;4.77;;;3.00;;
15153;SDS011;7677;41.896;25.004;2023-05-14T03:37:33;3.70;;;3.00;;
15153;SDS011;7677;41.896;25.004;2023-05-14T03:40:02;3.60;;;3.10;;
15153;SDS011;7677;41.896;25.004;2023-05-14T03:42:30;3.10;;;2.80;;
15153;SDS011;7677;41.896;25.004;2023-05-14T03:44:57;3.07;;;2.87;;
15153;SDS011;7677;41.896;25.004;2023-05-14T03:47:31;3.67;;;2.93;;
15153;SDS011;7677;41.896;25.004;2023-05-14T03:49:58;3.20;;;2.90;;
15153;SDS011;7677;41.896;25.004;2023-05-14T03:52:40;4.37;;;3.10;;
15153;SDS011;7677;41.896;25.004;2023-05-14T03:55:10;2.70;;;2.50;;
15153;SDS011;7677;41.896;25.004;2023-05-14T03:57:37;3.53;;;3.17;;
15153;SDS011;7677;41.896;25.004;2023-05-14T04:00:05;4.37;;;3.77;;
15153;SDS011;7677;41.896;25.004;2023-05-14T04:02:41;5.07;;;3.83;;
15153;SDS011;7677;41.896;25.004;2023-05-14T04:05:08;3.73;;;3.30;;
15153;SDS011;7677;41.896;25.004;2023-05-14T04:07:35;3.60;;;3.30;;
15153;SDS011;7677;41.896;25.004;2023-05-14T04:10:02;3.37;;;3.07;;
15153;SDS011;7677;41.896;25.004;2023-05-14T04:12:31;3.53;;;3.20;;
15153;SDS011;7677;41.896;25.004;2023-05-14T04:15:00;3.80;;;3.40;;
15153;SDS011;7677;41.896;25.004;2023-05-14T04:17:27;3.57;;;3.27;;
15153;SDS011;7677;41.896;25.004;2023-05-14T04:19:54;4.67;;;3.37;;
15153;SDS011;7677;41.896;25.004;2023-05-14T04:22:21;3.90;;;3.53;;
15153;SDS011;7677;41.896;25.004;2023-05-14T04:24:48;3.90;;;3.50;;
15153;SDS011;7677;41.896;25.004;2023-05-14T04:27:18;3.93;;;3.53;;
15153;SDS011;7677;41.896;25.004;2023-05-14T04:29:48;4.10;;;3.53;;
15153;SDS011;7677;41.896;25.004;2023-05-14T04:32:15;4.33;;;3.93;;
15153;SDS011;7677;41.896;25.004;2023-05-14T04:34:43;5.23;;;4.67;;
15153;SDS011;7677;41.896;25.004;2023-05-14T04:37:11;4.77;;;4.27;;
15153;SDS011;7677;41.896;25.004;2023-05-14T04:39:38;6.67;;;5.27;;
15153;SDS011;7677;41.896;25.004;2023-05-14T04:42:05;8.07;;;6.10;;
15153;SDS011;7677;41.896;25.004;2023-05-14T04:44:33;5.60;;;4.20;;
15153;SDS011;7677;41.896;25.004;2023-05-14T04:47:02;8.80;;;5.40;;
15153;SDS011;7677;41.896;25.004;2023-05-14T04:49:29;5.87;;;4.63;;
15153;SDS011;7677;41.896;25.004;2023-05-14T04:51:56;6.03;;;4.97;;
15153;SDS011;7677;41.896;25.004;2023-05-14T04:54:23;5.83;;;5.23;;
15153;SDS011;7677;41.896;25.004;2023-05-14T04:56:50;6.77;;;5.57;;
15153;SDS011;7677;41.896;25.004;2023-05-14T04:59:20;6.53;;;4.77;;
15153;SDS011;7677;41.896;25.004;2023-05-14T05:04:38;6.63;;;4.83;;
15153;SDS011;7677;41.896;25.004;2023-05-14T05:07:05;5.83;;;4.80;;
15153;SDS011;7677;41.896;25.004;2023-05-14T05:09:33;7.43;;;4.70;;
15153;SDS011;7677;41.896;25.004;2023-05-14T05:12:00;5.43;;;4.83;;
15153;SDS011;7677;41.896;25.004;2023-05-14T05:14:27;6.73;;;4.13;;
15153;SDS011;7677;41.896;25.004;2023-05-14T05:16:54;4.80;;;4.30;;
15153;SDS011;7677;41.896;25.004;2023-05-14T05:19:23;5.10;;;4.10;;
15153;SDS011;7677;41.896;25.004;2023-05-14T05:21:50;11.03;;;4.13;;
15153;SDS011;7677;41.896;25.004;2023-05-14T05:24:17;5.57;;;4.27;;
15153;SDS011;7677;41.896;25.004;2023-05-14T05:26:44;10.30;;;7.00;;
15153;SDS011;7677;41.896;25.004;2023-05-14T05:29:11;34.30;;;19.03;;
15153;SDS011;7677;41.896;25.004;2023-05-14T05:31:39;8.77;;;6.00;;
15153;SDS011;7677;41.896;25.004;2023-05-14T05:34:06;7.83;;;4.37;;
15153;SDS011;7677;41.896;25.004;2023-05-14T05:36:35;6.10;;;4.60;;
15153;SDS011;7677;41.896;25.004;2023-05-14T05:39:02;8.47;;;5.33;;
15153;SDS011;7677;41.896;25.004;2023-05-14T05:41:29;8.90;;;6.70;;
15153;SDS011;7677;41.896;25.004;2023-05-14T05:43:56;10.50;;;7.70;;
15153;SDS011;7677;41.896;25.004;2023-05-14T05:46:23;7.00;;;5.80;;
15153;SDS011;7677;41.896;25.004;2023-05-14T05:48:50;4.93;;;3.77;;
15153;SDS011;7677;41.896;25.004;2023-05-14T05:51:18;5.27;;;4.77;;
15153;SDS011;7677;41.896;25.004;2023-05-14T05:53:47;5.00;;;3.97;;
15153;SDS011;7677;41.896;25.004;2023-05-14T05:56:14;5.97;;;5.00;;
15153;SDS011;7677;41.896;25.004;2023-05-14T05:58:41;5.83;;;4.93;;
15153;SDS011;7677;41.896;25.004;2023-05-14T06:01:09;5.83;;;4.23;;
15153;SDS011;7677;41.896;25.004;2023-05-14T06:03:36;5.70;;;4.10;;
15153;SDS011;7677;41.896;25.004;2023-05-14T06:06:03;6.40;;;3.90;;
15153;SDS011;7677;41.896;25.004;2023-05-14T06:08:31;6.17;;;3.80;;
15153;SDS011;7677;41.896;25.004;2023-05-14T06:10:59;4.37;;;3.80;;
15153;SDS011;7677;41.896;25.004;2023-05-14T06:13:27;4.23;;;3.63;;
15153;SDS011;7677;41.896;25.004;2023-05-14T06:15:54;3.93;;;3.27;;
15153;SDS011;7677;41.896;25.004;2023-05-14T06:18:21;4.43;;;3.33;;
15153;SDS011;7677;41.896;25.004;2023-05-14T06:20:48;4.33;;;3.87;;
15153;SDS011;7677;41.896;25.004;2023-05-14T06:23:15;4.43;;;4.03;;
15153;SDS011;7677;41.896;25.004;2023-05-14T06:25:42;6.40;;;4.00;;
15153;SDS011;7677;41.896;25.004;2023-05-14T06:28:14;4.97;;;4.10;;
15153;SDS011;7677;41.896;25.004;2023-05-14T06:30:41;5.47;;;4.00;;
15153;SDS011;7677;41.896;25.004;2023-05-14T06:33:08;4.53;;;4.13;;
15153;SDS011;7677;41.896;25.004;2023-05-14T06:35:37;4.20;;;3.80;;
15153;SDS011;7677;41.896;25.004;2023-05-14T06:38:04;5.87;;;3.73;;
15153;SDS011;7677;41.896;25.004;2023-05-14T06:40:31;3.70;;;3.37;;
15153;SDS011;7677;41.896;25.004;2023-05-14T06:42:59;4.43;;;4.00;;
15153;SDS011;7677;41.896;25.004;2023-05-14T06:45:28;4.80;;;3.60;;
15153;SDS011;7677;41.896;25.004;2023-05-14T06:47:56;4.47;;;3.90;;
15153;SDS011;7677;41.896;25.004;2023-05-14T06:50:23;4.80;;;4.30;;
15153;SDS011;7677;41.896;25.004;2023-05-14T06:52:51;5.37;;;4.60;;
15153;SDS011;7677;41.896;25.004;2023-05-14T06:55:18;5.03;;;3.43;;
15153;SDS011;7677;41.896;25.004;2023-05-14T06:57:45;3.90;;;3.60;;
15153;SDS011;7677;41.896;25.004;2023-05-14T07:00:13;5.17;;;4.20;;
15153;SDS011;7677;41.896;25.004;2023-05-14T07:02:42;4.20;;;3.80;;
15153;SDS011;7677;41.896;25.004;2023-05-14T07:05:09;6.80;;;4.47;;
15153;SDS011;7677;41.896;25.004;2023-05-14T07:07:37;4.40;;;4.00;;
15153;SDS011;7677;41.896;25.004;2023-05-14T07:10:04;5.00;;;4.17;;
15153;SDS011;7677;41.896;25.004;2023-05-14T07:12:32;6.47;;;4.43;;
15153;SDS011;7677;41.896;25.004;2023-05-14T07:14:59;6.63;;;3.80;;
15153;SDS011;7677;41.896;25.004;2023-05-14T07:17:27;4.83;;;3.50;;
15153;SDS011;7677;41.896;25.004;2023-05-14T07:19:55;4.43;;;3.60;;
15153;SDS011;7677;41.896;25.004;2023-05-14T07:22:24;6.10;;;5.10;;
15153;SDS011;7677;41.896;25.004;2023-05-14T07:24:51;11.73;;;8.13;;
15153;SDS011;7677;41.896;25.004;2023-05-14T07:27:18;13.43;;;6.90;;
15153;SDS011;7677;41.896;25.004;2023-05-14T07:29:46;7.33;;;5.53;;
15153;SDS011;7677;41.896;25.004;2023-05-14T07:32:13;12.27;;;8.77;;
15153;SDS011;7677;41.896;25.004;2023-05-14T07:34:40;8.40;;;6.50;;
15153;SDS011;7677;41.896;25.004;2023-05-14T07:37:09;6.70;;;5.97;;
15153;SDS011;7677;41.896;25.004;2023-05-14T07:39:36;6.30;;;5.43;;
15153;SDS011;7677;41.896;25.004;2023-05-14T07:42:03;11.83;;;7.80;;
15153;SDS011;7677;41.896;25.004;2023-05-14T07:44:31;8.77;;;6.87;;
15153;SDS011;7677;41.896;25.004;2023-05-14T07:46:58;6.60;;;5.70;;
15153;SDS011;7677;41.896;25.004;2023-05-14T07:49:26;7.93;;;6.30;;
15153;SDS011;7677;41.896;25.004;2023-05-14T07:51:53;6.40;;;5.80;;
15153;SDS011;7677;41.896;25.004;2023-05-14T07:54:22;6.43;;;5.83;;
15153;SDS011;7677;41.896;25.004;2023-05-14T07:56:49;14.63;;;7.83;;
15153;SDS011;7677;41.896;25.004;2023-05-14T07:59:16;11.80;;;8.57;;
15153;SDS011;7677;41.896;25.004;2023-05-14T08:01:44;7.67;;;6.80;;
15153;SDS011;7677;41.896;25.004;2023-05-14T08:04:11;8.33;;;6.83;;
15153;SDS011;7677;41.896;25.004;2023-05-14T08:06:41;10.33;;;7.30;;
15153;SDS011;7677;41.896;25.004;2023-05-14T08:09:08;15.93;;;8.37;;
15153;SDS011;7677;41.896;25.004;2023-05-14T08:11:37;8.77;;;7.80;;
15153;SDS011;7677;41.896;25.004;2023-05-14T08:14:04;8.50;;;7.13;;
15153;SDS011;7677;41.896;25.004;2023-05-14T08:16:32;9.00;;;7.37;;
15153;SDS011;7677;41.896;25.004;2023-05-14T08:18:59;9.87;;;7.10;;
15153;SDS011;7677;41.896;25.004;2023-05-14T08:21:26;10.70;;;7.17;;
15153;SDS011;7677;41.896;25.004;2023-05-14T08:23:53;8.60;;;7.77;;
15153;SDS011;7677;41.896;25.004;2023-05-14T08:26:20;8.43;;;7.13;;
15153;SDS011;7677;41.896;25.004;2023-05-14T08:28:49;9.00;;;7.00;;
15153;SDS011;7677;41.896;25.004;2023-05-14T08:31:16;7.50;;;6.70;;
15153;SDS011;7677;41.896;25.004;2023-05-14T08:33:43;12.17;;;8.23;;
15153;SDS011;7677;41.896;25.004;2023-05-14T08:36:10;8.77;;;6.87;;
15153;SDS011;7677;41.896;25.004;2023-05-14T08:38:38;7.80;;;6.20;;
15153;SDS011;7677;41.896;25.004;2023-05-14T08:41:06;9.17;;;6.47;;
15153;SDS011;7677;41.896;25.004;2023-05-14T08:43:36;7.70;;;6.80;;
15153;SDS011;7677;41.896;25.004;2023-05-14T08:46:13;8.17;;;6.40;;
15153;SDS011;7677;41.896;25.004;2023-05-14T08:48:41;9.57;;;6.83;;
15153;SDS011;7677;41.896;25.004;2023-05-14T08:51:09;9.23;;;7.33;;
15153;SDS011;7677;41.896;25.004;2023-05-14T08:53:36;10.77;;;7.27;;
15153;SDS011;7677;41.896;25.004;2023-05-14T08:56:05;12.67;;;7.93;;
15153;SDS011;7677;41.896;25.004;2023-05-14T08:58:32;12.10;;;8.57;;
15153;SDS011;7677;41.896;25.004;2023-05-14T09:01:00;10.93;;;6.80;;
15153;SDS011;7677;41.896;25.004;2023-05-14T09:03:28;11.53;;;6.43;;
15153;SDS011;7677;41.896;25.004;2023-05-14T09:05:55;8.13;;;7.07;;
15153;SDS011;7677;41.896;25.004;2023-05-14T09:08:23;14.30;;;10.87;;
15153;SDS011;7677;41.896;25.004;2023-05-14T09:10:50;9.20;;;7.60;;
15153;SDS011;7677;41.896;25.004;2023-05-14T09:13:18;9.27;;;8.27;;
15153;SDS011;7677;41.896;25.004;2023-05-14T09:15:45;10.83;;;7.97;;
15153;SDS011;7677;41.896;25.004;2023-05-14T09:18:15;14.03;;;10.07;;
15153;SDS011;7677;41.896;25.004;2023-05-14T09:20:44;12.57;;;8.87;;
15153;SDS011;7677;41.896;25.004;2023-05-14T09:23:12;19.70;;;13.13;;
15153;SDS011;7677;41.896;25.004;2023-05-14T09:25:40;12.00;;;8.27;;
15153;SDS011;7677;41.896;25.004;2023-05-14T09:28:08;9.33;;;7.70;;
15153;SDS011;7677;41.896;25.004;2023-05-14T09:30:35;9.33;;;8.00;;
15153;SDS011;7677;41.896;25.004;2023-05-14T09:33:03;11.63;;;8.93;;
15153;SDS011;7677;41.896;25.004;2023-05-14T09:35:34;11.53;;;8.27;;
15153;SDS011;7677;41.896;25.004;2023-05-14T09:38:07;11.40;;;8.60;;
15153;SDS011;7677;41.896;25.004;2023-05-14T09:40:34;13.33;;;9.50;;
15153;SDS011;7677;41.896;25.004;2023-05-14T09:43:02;12.37;;;9.80;;
15153;SDS011;7677;41.896;25.004;2023-05-14T09:45:29;11.60;;;9.00;;
15153;SDS011;7677;41.896;25.004;2023-05-14T09:47:58;13.80;;;9.80;;
15153;SDS011;7677;41.896;25.004;2023-05-14T09:50:25;11.13;;;9.80;;
15153;SDS011;7677;41.896;25.004;2023-05-14T09:52:53;14.97;;;10.13;;
15153;SDS011;7677;41.896;25.004;2023-05-14T09:55:22;16.67;;;11.37;;
15153;SDS011;7677;41.896;25.004;2023-05-14T09:57:49;21.87;;;16.10;;
15153;SDS011;7677;41.896;25.004;2023-05-14T10:00:17;21.97;;;16.33;;
15153;SDS011;7677;41.896;25.004;2023-05-14T10:02:44;22.73;;;16.70;;
15153;SDS011;7677;41.896;25.004;2023-05-14T10:05:13;27.60;;;18.73;;
15153;SDS011;7677;41.896;25.004;2023-05-14T10:07:41;29.70;;;21.17;;
15153;SDS011;7677;41.896;25.004;2023-05-14T10:10:12;23.73;;;17.50;;
15153;SDS011;7677;41.896;25.004;2023-05-14T10:12:44;16.63;;;13.37;;
15153;SDS011;7677;41.896;25.004;2023-05-14T10:15:15;39.07;;;27.10;;
15153;SDS011;7677;41.896;25.004;2023-05-14T10:17:47;73.20;;;49.10;;
15153;SDS011;7677;41.896;25.004;2023-05-14T10:20:15;26.23;;;20.40;;
15153;SDS011;7677;41.896;25.004;2023-05-14T10:22:42;20.20;;;16.83;;
15153;SDS011;7677;41.896;25.004;2023-05-14T10:25:09;18.93;;;15.00;;
15153;SDS011;7677;41.896;25.004;2023-05-14T10:27:37;19.37;;;14.00;;
15153;SDS011;7677;41.896;25.004;2023-05-14T10:30:09;16.10;;;12.53;;
15153;SDS011;7677;41.896;25.004;2023-05-14T10:32:38;19.37;;;12.30;;
15153;SDS011;7677;41.896;25.004;2023-05-14T10:35:15;17.37;;;12.07;;
15153;SDS011;7677;41.896;25.004;2023-05-14T10:37:44;24.37;;;15.63;;
15153;SDS011;7677;41.896;25.004;2023-05-14T10:40:12;21.33;;;14.20;;
15153;SDS011;7677;41.896;25.004;2023-05-14T10:42:39;20.87;;;14.60;;
15153;SDS011;7677;41.896;25.004;2023-05-14T10:45:11;18.73;;;13.57;;
15153;SDS011;7677;41.896;25.004;2023-05-14T10:47:40;19.40;;;12.17;;
15153;SDS011;7677;41.896;25.004;2023-05-14T10:50:09;14.60;;;10.73;;
15153;SDS011;7677;41.896;25.004;2023-05-14T10:52:37;14.10;;;10.67;;
15153;SDS011;7677;41.896;25.004;2023-05-14T10:55:07;12.47;;;9.50;;
15153;SDS011;7677;41.896;25.004;2023-05-14T10:57:36;12.63;;;9.13;;
15153;SDS011;7677;41.896;25.004;2023-05-14T11:00:05;14.37;;;10.50;;
15153;SDS011;7677;41.896;25.004;2023-05-14T11:02:35;27.57;;;17.50;;
15153;SDS011;7677;41.896;25.004;2023-05-14T11:05:03;27.50;;;17.20;;
15153;SDS011;7677;41.896;25.004;2023-05-14T11:07:33;16.20;;;11.93;;
15153;SDS011;7677;41.896;25.004;2023-05-14T11:10:02;13.90;;;10.43;;
15153;SDS011;7677;41.896;25.004;2023-05-14T11:12:31;13.20;;;10.27;;
15153;SDS011;7677;41.896;25.004;2023-05-14T11:14:59;10.67;;;8.93;;
15153;SDS011;7677;41.896;25.004;2023-05-14T11:17:28;10.57;;;8.53;;
15153;SDS011;7677;41.896;25.004;2023-05-14T11:19:58;12.67;;;9.97;;
15153;SDS011;7677;41.896;25.004;2023-05-14T11:22:25;13.87;;;10.17;;
15153;SDS011;7677;41.896;25.004;2023-05-14T11:24:53;16.20;;;13.07;;
15153;SDS011;7677;41.896;25.004;2023-05-14T11:27:20;15.10;;;12.07;;
15153;SDS011;7677;41.896;25.004;2023-05-14T11:29:48;17.23;;;12.13;;
15153;SDS011;7677;41.896;25.004;2023-05-14T11:32:16;16.93;;;14.10;;
15153;SDS011;7677;41.896;25.004;2023-05-14T11:34:43;17.97;;;13.90;;
15153;SDS011;7677;41.896;25.004;2023-05-14T11:37:13;16.27;;;12.80;;
15153;SDS011;7677;41.896;25.004;2023-05-14T11:39:45;16.40;;;13.17;;
15153;SDS011;7677;41.896;25.004;2023-05-14T11:42:13;20.73;;;14.13;;
15153;SDS011;7677;41.896;25.004;2023-05-14T11:44:42;19.07;;;14.40;;
15153;SDS011;7677;41.896;25.004;2023-05-14T11:47:10;17.27;;;13.63;;
15153;SDS011;7677;41.896;25.004;2023-05-14T11:49:37;20.03;;;14.33;;
15153;SDS011;7677;41.896;25.004;2023-05-14T11:52:05;17.37;;;14.07;;
15153;SDS011;7677;41.896;25.004;2023-05-14T11:54:36;17.33;;;13.33;;
15153;SDS011;7677;41.896;25.004;2023-05-14T11:57:06;25.40;;;18.33;;
15153;SDS011;7677;41.896;25.004;2023-05-14T11:59:35;16.00;;;12.53;;
15153;SDS011;7677;41.896;25.004;2023-05-14T12:02:03;15.50;;;13.57;;
15153;SDS011;7677;41.896;25.004;2023-05-14T12:04:31;16.50;;;12.73;;
15153;SDS011;7677;41.896;25.004;2023-05-14T12:06:59;17.77;;;12.20;;
15153;SDS011;7677;41.896;25.004;2023-05-14T12:09:34;20.17;;;14.73;;
15153;SDS011;7677;41.896;25.004;2023-05-14T12:12:07;18.20;;;13.00;;
15153;SDS011;7677;41.896;25.004;2023-05-14T12:14:36;17.03;;;13.13;;
15153;SDS011;7677;41.896;25.004;2023-05-14T12:17:09;15.33;;;12.83;;
15153;SDS011;7677;41.896;25.004;2023-05-14T12:19:38;18.40;;;13.57;;
15153;SDS011;7677;41.896;25.004;2023-05-14T12:22:06;22.37;;;15.93;;
15153;SDS011;7677;41.896;25.004;2023-05-14T12:24:36;17.03;;;13.03;;
15153;SDS011;7677;41.896;25.004;2023-05-14T12:27:03;14.23;;;11.13;;
15153;SDS011;7677;41.896;25.004;2023-05-14T12:29:34;17.03;;;13.57;;
15153;SDS011;7677;41.896;25.004;2023-05-14T12:32:05;17.27;;;13.80;;
15153;SDS011;7677;41.896;25.004;2023-05-14T12:34:33;17.30;;;13.43;;
15153;SDS011;7677;41.896;25.004;2023-05-14T12:37:01;15.47;;;12.57;;
15153;SDS011;7677;41.896;25.004;2023-05-14T12:39:29;20.27;;;14.27;;
15153;SDS011;7677;41.896;25.004;2023-05-14T12:41:59;17.00;;;13.53;;
15153;SDS011;7677;41.896;25.004;2023-05-14T12:44:27;18.27;;;13.47;;
15153;SDS011;7677;41.896;25.004;2023-05-14T12:46:54;17.40;;;13.03;;
15153;SDS011;7677;41.896;25.004;2023-05-14T12:49:21;20.93;;;15.43;;
15153;SDS011;7677;41.896;25.004;2023-05-14T12:51:49;24.57;;;15.60;;
15153;SDS011;7677;41.896;25.004;2023-05-14T12:54:16;17.87;;;13.80;;
15153;SDS011;7677;41.896;25.004;2023-05-14T12:56:44;21.60;;;15.33;;
15153;SDS011;7677;41.896;25.004;2023-05-14T12:59:13;17.50;;;14.17;;
15153;SDS011;7677;41.896;25.004;2023-05-14T13:01:40;17.70;;;12.73;;
15153;SDS011;7677;41.896;25.004;2023-05-14T13:04:08;19.17;;;14.50;;
15153;SDS011;7677;41.896;25.004;2023-05-14T13:06:36;20.63;;;14.37;;
15153;SDS011;7677;41.896;25.004;2023-05-14T13:09:04;20.27;;;14.93;;
15153;SDS011;7677;41.896;25.004;2023-05-14T13:11:31;17.23;;;13.77;;
15153;SDS011;7677;41.896;25.004;2023-05-14T13:13:58;16.87;;;13.93;;
15153;SDS011;7677;41.896;25.004;2023-05-14T13:16:27;22.73;;;14.00;;
15153;SDS011;7677;41.896;25.004;2023-05-14T13:18:55;20.47;;;15.03;;
15153;SDS011;7677;41.896;25.004;2023-05-14T13:21:22;19.40;;;13.93;;
15153;SDS011;7677;41.896;25.004;2023-05-14T13:23:49;18.27;;;12.90;;
15153;SDS011;7677;41.896;25.004;2023-05-14T13:26:16;20.87;;;14.60;;
15153;SDS011;7677;41.896;25.004;2023-05-14T13:28:44;19.23;;;14.93;;
15153;SDS011;7677;41.896;25.004;2023-05-14T13:31:11;26.57;;;16.30;;
15153;SDS011;7677;41.896;25.004;2023-05-14T13:33:42;21.50;;;15.50;;
15153;SDS011;7677;41.896;25.004;2023-05-14T13:36:10;23.67;;;16.10;;
15153;SDS011;7677;41.896;25.004;2023-05-14T13:38:38;24.90;;;16.30;;
15153;SDS011;7677;41.896;25.004;2023-05-14T13:41:06;21.30;;;14.63;;
15153;SDS011;7677;41.896;25.004;2023-05-14T13:43:34;21.67;;;15.20;;
15153;SDS011;7677;41.896;25.004;2023-05-14T13:46:01;22.50;;;15.77;;
15153;SDS011;7677;41.896;25.004;2023-05-14T13:48:30;20.20;;;15.60;;
15153;SDS011;7677;41.896;25.004;2023-05-14T13:50:59;21.83;;;17.43;;
15153;SDS011;7677;41.896;25.004;2023-05-14T13:53:26;25.67;;;16.27;;
15153;SDS011;7677;41.896;25.004;2023-05-14T13:55:53;25.53;;;17.47;;
15153;SDS011;7677;41.896;25.004;2023-05-14T13:58:22;28.63;;;17.23;;
15153;SDS011;7677;41.896;25.004;2023-05-14T14:00:50;23.93;;;16.63;;
15153;SDS011;7677;41.896;25.004;2023-05-14T14:03:18;23.70;;;16.40;;
15153;SDS011;7677;41.896;25.004;2023-05-14T14:05:46;20.97;;;15.23;;
15153;SDS011;7677;41.896;25.004;2023-05-14T14:08:14;20.40;;;15.20;;
15153;SDS011;7677;41.896;25.004;2023-05-14T14:10:42;29.00;;;16.77;;
15153;SDS011;7677;41.896;25.004;2023-05-14T14:13:09;28.83;;;18.53;;
15153;SDS011;7677;41.896;25.004;2023-05-14T14:15:36;29.40;;;18.40;;
15153;SDS011;7677;41.896;25.004;2023-05-14T14:18:03;29.23;;;18.50;;
15153;SDS011;7677;41.896;25.004;2023-05-14T14:20:31;28.53;;;19.57;;
15153;SDS011;7677;41.896;25.004;2023-05-14T14:22:58;26.40;;;17.93;;
15153;SDS011;7677;41.896;25.004;2023-05-14T14:25:27;31.23;;;18.87;;
15153;SDS011;7677;41.896;25.004;2023-05-14T14:27:54;25.43;;;18.03;;
15153;SDS011;7677;41.896;25.004;2023-05-14T14:30:21;26.10;;;17.97;;
15153;SDS011;7677;41.896;25.004;2023-05-14T14:32:49;26.97;;;17.33;;
15153;SDS011;7677;41.896;25.004;2023-05-14T14:35:17;26.30;;;17.57;;
15153;SDS011;7677;41.896;25.004;2023-05-14T14:37:45;26.80;;;17.77;;
15153;SDS011;7677;41.896;25.004;2023-05-14T14:40:16;23.90;;;15.70;;
15153;SDS011;7677;41.896;25.004;2023-05-14T14:42:45;26.30;;;17.00;;
15153;SDS011;7677;41.896;25.004;2023-05-14T14:45:12;21.93;;;15.17;;